sensor_id;sensor_type;location;lat;lon;timestamp;P1;durP1;ratioP1;P2;durP2;ratioP2
1344;SDS011;15375;48.540;9.268;2024-02-16T00:00:12;7.40;;;5.20;;
1344;SDS011;15375;48.540;9.268;2024-02-16T00:02:38;6.27;;;5.67;;
1344;SDS011;15375;48.540;9.268;2024-02-16T00:05:07;6.83;;;5.80;;
1344;SDS011;15375;48.540;9.268;2024-02-16T00:07:33;5.93;;;5.07;;
1344;SDS011;15375;48.540;9.268;2024-02-16T00:09:59;5.17;;;4.67;;
1344;SDS011;15375;48.540;9.268;2024-02-16T00:12:24;7.13;;;5.80;;
1344;SDS011;15375;48.540;9.268;2024-02-16T00:14:50;9.03;;;5.40;;
1344;SDS011;15375;48.540;9.268;2024-02-16T00:17:15;5.87;;;5.03;;
1344;SDS011;15375;48.540;9.268;2024-02-16T00:19:41;8.53;;;4.93;;
1344;SDS011;15375;48.540;9.268;2024-02-16T00:22:06;8.80;;;6.00;;
1344;SDS011;15375;48.540;9.268;2024-02-16T00:24:32;7.60;;;6.10;;
1344;SDS011;15375;48.540;9.268;2024-02-16T00:26:58;6.80;;;5.33;;
1344;SDS011;15375;48.540;9.268;2024-02-16T00:29:24;6.13;;;5.07;;
1344;SDS011;15375;48.540;9.268;2024-02-16T00:31:49;7.30;;;5.10;;
1344;SDS011;15375;48.540;9.268;2024-02-16T00:34:15;10.40;;;6.13;;
1344;SDS011;15375;48.540;9.268;2024-02-16T00:36:41;6.73;;;6.03;;
1344;SDS011;15375;48.540;9.268;2024-02-16T00:39:06;5.80;;;5.30;;
1344;SDS011;15375;48.540;9.268;2024-02-16T00:41:31;6.70;;;5.37;;
1344;SDS011;15375;48.540;9.268;2024-02-16T00:43:57;7.40;;;5.97;;
1344;SDS011;15375;48.540;9.268;2024-02-16T00:46:22;6.23;;;5.73;;
1344;SDS011;15375;48.540;9.268;2024-02-16T00:48:52;9.83;;;6.20;;
1344;SDS011;15375;48.540;9.268;2024-02-16T00:51:19;6.23;;;5.63;;
1344;SDS011;15375;48.540;9.268;2024-02-16T00:53:44;7.17;;;5.10;;
1344;SDS011;15375;48.540;9.268;2024-02-16T00:56:10;7.37;;;5.50;;
1344;SDS011;15375;48.540;9.268;2024-02-16T00:58:36;5.90;;;5.27;;
1344;SDS011;15375;48.540;9.268;2024-02-16T01:01:03;5.90;;;4.90;;
1344;SDS011;15375;48.540;9.268;2024-02-16T01:03:29;8.23;;;4.10;;
1344;SDS011;15375;48.540;9.268;2024-02-16T01:05:54;5.00;;;4.50;;
1344;SDS011;15375;48.540;9.268;2024-02-16T01:08:19;5.70;;;4.77;;
1344;SDS011;15375;48.540;9.268;2024-02-16T01:10:45;5.77;;;4.70;;
1344;SDS011;15375;48.540;9.268;2024-02-16T01:13:11;5.23;;;4.10;;
1344;SDS011;15375;48.540;9.268;2024-02-16T01:15:37;4.63;;;4.20;;
1344;SDS011;15375;48.540;9.268;2024-02-16T01:18:02;4.93;;;4.50;;
1344;SDS011;15375;48.540;9.268;2024-02-16T01:20:29;6.97;;;5.10;;
1344;SDS011;15375;48.540;9.268;2024-02-16T01:22:56;5.27;;;4.77;;
1344;SDS011;15375;48.540;9.268;2024-02-16T01:25:21;5.30;;;4.53;;
1344;SDS011;15375;48.540;9.268;2024-02-16T01:27:47;6.60;;;5.00;;
1344;SDS011;15375;48.540;9.268;2024-02-16T01:30:12;8.17;;;5.40;;
1344;SDS011;15375;48.540;9.268;2024-02-16T01:32:39;9.40;;;6.53;;
1344;SDS011;15375;48.540;9.268;2024-02-16T01:35:05;10.13;;;6.03;;
1344;SDS011;15375;48.540;9.268;2024-02-16T01:37:31;6.70;;;5.77;;
1344;SDS011;15375;48.540;9.268;2024-02-16T01:39:57;7.03;;;5.73;;
1344;SDS011;15375;48.540;9.268;2024-02-16T01:42:22;7.57;;;5.83;;
1344;SDS011;15375;48.540;9.268;2024-02-16T01:44:47;6.67;;;5.83;;
1344;SDS011;15375;48.540;9.268;2024-02-16T01:47:13;5.80;;;5.03;;
1344;SDS011;15375;48.540;9.268;2024-02-16T01:49:39;5.63;;;5.00;;
1344;SDS011;15375;48.540;9.268;2024-02-16T01:52:04;6.00;;;5.40;;
1344;SDS011;15375;48.540;9.268;2024-02-16T01:54:30;5.20;;;4.63;;
1344;SDS011;15375;48.540;9.268;2024-02-16T01:56:56;7.70;;;5.70;;
1344;SDS011;15375;48.540;9.268;2024-02-16T01:59:21;11.10;;;6.90;;
1344;SDS011;15375;48.540;9.268;2024-02-16T02:01:47;7.13;;;6.27;;
1344;SDS011;15375;48.540;9.268;2024-02-16T02:04:13;7.33;;;5.53;;
1344;SDS011;15375;48.540;9.268;2024-02-16T02:06:38;5.97;;;5.37;;
1344;SDS011;15375;48.540;9.268;2024-02-16T02:09:03;7.10;;;5.77;;
1344;SDS011;15375;48.540;9.268;2024-02-16T02:11:29;7.43;;;6.20;;
1344;SDS011;15375;48.540;9.268;2024-02-16T02:13:54;8.50;;;5.37;;
1344;SDS011;15375;48.540;9.268;2024-02-16T02:16:19;6.40;;;5.80;;
1344;SDS011;15375;48.540;9.268;2024-02-16T02:18:46;6.23;;;5.70;;
1344;SDS011;15375;48.540;9.268;2024-02-16T02:21:11;10.23;;;6.27;;
1344;SDS011;15375;48.540;9.268;2024-02-16T02:23:38;8.90;;;5.50;;
1344;SDS011;15375;48.540;9.268;2024-02-16T02:26:03;8.40;;;6.20;;
1344;SDS011;15375;48.540;9.268;2024-02-16T02:28:29;12.60;;;5.30;;
1344;SDS011;15375;48.540;9.268;2024-02-16T02:30:54;6.53;;;5.37;;
1344;SDS011;15375;48.540;9.268;2024-02-16T02:33:20;6.40;;;5.23;;
1344;SDS011;15375;48.540;9.268;2024-02-16T02:35:46;5.67;;;5.17;;
1344;SDS011;15375;48.540;9.268;2024-02-16T02:38:12;6.10;;;4.83;;
1344;SDS011;15375;48.540;9.268;2024-02-16T02:40:37;5.60;;;4.50;;
1344;SDS011;15375;48.540;9.268;2024-02-16T02:43:03;6.27;;;5.30;;
1344;SDS011;15375;48.540;9.268;2024-02-16T02:45:28;4.80;;;4.40;;
1344;SDS011;15375;48.540;9.268;2024-02-16T02:47:54;8.57;;;5.03;;
1344;SDS011;15375;48.540;9.268;2024-02-16T02:50:19;5.60;;;4.47;;
1344;SDS011;15375;48.540;9.268;2024-02-16T02:52:45;5.57;;;4.23;;
1344;SDS011;15375;48.540;9.268;2024-02-16T02:55:10;6.50;;;4.80;;
1344;SDS011;15375;48.540;9.268;2024-02-16T02:57:36;6.40;;;4.73;;
1344;SDS011;15375;48.540;9.268;2024-02-16T03:00:05;4.00;;;3.40;;
1344;SDS011;15375;48.540;9.268;2024-02-16T03:02:38;6.00;;;3.70;;
1344;SDS011;15375;48.540;9.268;2024-02-16T03:05:05;3.73;;;3.40;;
1344;SDS011;15375;48.540;9.268;2024-02-16T03:07:32;4.53;;;3.60;;
1344;SDS011;15375;48.540;9.268;2024-02-16T03:09:58;5.57;;;4.33;;
1344;SDS011;15375;48.540;9.268;2024-02-16T03:12:24;5.27;;;4.17;;
1344;SDS011;15375;48.540;9.268;2024-02-16T03:14:49;6.67;;;3.87;;
1344;SDS011;15375;48.540;9.268;2024-02-16T03:17:14;4.00;;;3.60;;
1344;SDS011;15375;48.540;9.268;2024-02-16T03:19:40;4.27;;;3.87;;
1344;SDS011;15375;48.540;9.268;2024-02-16T03:22:05;4.50;;;3.90;;
1344;SDS011;15375;48.540;9.268;2024-02-16T03:24:31;3.50;;;3.20;;
1344;SDS011;15375;48.540;9.268;2024-02-16T03:26:56;3.33;;;3.00;;
1344;SDS011;15375;48.540;9.268;2024-02-16T03:29:21;5.30;;;4.50;;
1344;SDS011;15375;48.540;9.268;2024-02-16T03:31:46;5.07;;;3.17;;
1344;SDS011;15375;48.540;9.268;2024-02-16T03:34:12;6.80;;;3.83;;
1344;SDS011;15375;48.540;9.268;2024-02-16T03:36:37;4.10;;;2.67;;
1344;SDS011;15375;48.540;9.268;2024-02-16T03:39:03;5.63;;;3.30;;
1344;SDS011;15375;48.540;9.268;2024-02-16T03:41:28;3.40;;;3.10;;
1344;SDS011;15375;48.540;9.268;2024-02-16T03:43:54;5.20;;;2.97;;
1344;SDS011;15375;48.540;9.268;2024-02-16T03:46:19;4.00;;;3.57;;
1344;SDS011;15375;48.540;9.268;2024-02-16T03:48:45;4.03;;;3.63;;
1344;SDS011;15375;48.540;9.268;2024-02-16T03:51:10;5.33;;;3.20;;
1344;SDS011;15375;48.540;9.268;2024-02-16T03:53:36;2.83;;;2.53;;
1344;SDS011;15375;48.540;9.268;2024-02-16T03:56:01;2.87;;;2.53;;
1344;SDS011;15375;48.540;9.268;2024-02-16T03:58:27;5.30;;;3.27;;
1344;SDS011;15375;48.540;9.268;2024-02-16T04:00:52;5.80;;;4.07;;
1344;SDS011;15375;48.540;9.268;2024-02-16T04:03:18;3.47;;;3.17;;
1344;SDS011;15375;48.540;9.268;2024-02-16T04:05:43;7.07;;;3.20;;
1344;SDS011;15375;48.540;9.268;2024-02-16T04:08:09;3.30;;;3.00;;
1344;SDS011;15375;48.540;9.268;2024-02-16T04:10:34;3.37;;;3.00;;
1344;SDS011;15375;48.540;9.268;2024-02-16T04:13:00;3.57;;;2.87;;
1344;SDS011;15375;48.540;9.268;2024-02-16T04:15:26;3.63;;;2.60;;
1344;SDS011;15375;48.540;9.268;2024-02-16T04:17:51;4.03;;;3.10;;
1344;SDS011;15375;48.540;9.268;2024-02-16T04:20:17;3.60;;;2.40;;
1344;SDS011;15375;48.540;9.268;2024-02-16T04:22:44;3.07;;;2.80;;
1344;SDS011;15375;48.540;9.268;2024-02-16T04:25:09;2.83;;;2.60;;
1344;SDS011;15375;48.540;9.268;2024-02-16T04:27:35;5.53;;;3.40;;
1344;SDS011;15375;48.540;9.268;2024-02-16T04:30:02;3.87;;;3.30;;
1344;SDS011;15375;48.540;9.268;2024-02-16T04:32:28;8.00;;;3.53;;
1344;SDS011;15375;48.540;9.268;2024-02-16T04:34:53;4.10;;;3.50;;
1344;SDS011;15375;48.540;9.268;2024-02-16T04:37:21;4.20;;;3.40;;
1344;SDS011;15375;48.540;9.268;2024-02-16T04:39:47;12.73;;;4.27;;
1344;SDS011;15375;48.540;9.268;2024-02-16T04:42:12;5.40;;;3.60;;
1344;SDS011;15375;48.540;9.268;2024-02-16T04:44:37;8.77;;;3.57;;
1344;SDS011;15375;48.540;9.268;2024-02-16T04:47:03;4.10;;;3.70;;
1344;SDS011;15375;48.540;9.268;2024-02-16T04:49:29;4.57;;;4.07;;
1344;SDS011;15375;48.540;9.268;2024-02-16T04:51:54;3.70;;;3.30;;
1344;SDS011;15375;48.540;9.268;2024-02-16T04:54:20;5.33;;;4.20;;
1344;SDS011;15375;48.540;9.268;2024-02-16T04:56:45;5.80;;;3.63;;
1344;SDS011;15375;48.540;9.268;2024-02-16T04:59:10;3.77;;;3.37;;
1344;SDS011;15375;48.540;9.268;2024-02-16T05:01:36;5.30;;;3.97;;
1344;SDS011;15375;48.540;9.268;2024-02-16T05:04:01;3.83;;;3.10;;
1344;SDS011;15375;48.540;9.268;2024-02-16T05:06:27;4.37;;;2.40;;
1344;SDS011;15375;48.540;9.268;2024-02-16T05:08:52;3.97;;;3.00;;
1344;SDS011;15375;48.540;9.268;2024-02-16T05:11:18;3.70;;;3.27;;
1344;SDS011;15375;48.540;9.268;2024-02-16T05:13:44;3.00;;;2.70;;
1344;SDS011;15375;48.540;9.268;2024-02-16T05:16:10;4.60;;;3.17;;
1344;SDS011;15375;48.540;9.268;2024-02-16T05:18:36;4.13;;;3.33;;
1344;SDS011;15375;48.540;9.268;2024-02-16T05:21:02;5.80;;;3.90;;
1344;SDS011;15375;48.540;9.268;2024-02-16T05:23:27;4.30;;;3.20;;
1344;SDS011;15375;48.540;9.268;2024-02-16T05:25:53;7.40;;;2.90;;
1344;SDS011;15375;48.540;9.268;2024-02-16T05:28:19;4.83;;;3.53;;
1344;SDS011;15375;48.540;9.268;2024-02-16T05:30:44;3.57;;;3.27;;
1344;SDS011;15375;48.540;9.268;2024-02-16T05:33:10;7.30;;;4.07;;
1344;SDS011;15375;48.540;9.268;2024-02-16T05:35:36;4.03;;;3.67;;
1344;SDS011;15375;48.540;9.268;2024-02-16T05:38:04;4.23;;;3.83;;
1344;SDS011;15375;48.540;9.268;2024-02-16T05:40:35;3.37;;;3.07;;
1344;SDS011;15375;48.540;9.268;2024-02-16T05:43:18;5.87;;;4.20;;
1344;SDS011;15375;48.540;9.268;2024-02-16T05:45:44;2.97;;;2.77;;
1344;SDS011;15375;48.540;9.268;2024-02-16T05:48:09;3.70;;;3.30;;
1344;SDS011;15375;48.540;9.268;2024-02-16T05:50:35;6.60;;;4.00;;
1344;SDS011;15375;48.540;9.268;2024-02-16T05:53:00;7.50;;;5.03;;
1344;SDS011;15375;48.540;9.268;2024-02-16T05:55:26;7.63;;;3.77;;
1344;SDS011;15375;48.540;9.268;2024-02-16T05:57:51;5.13;;;3.63;;
1344;SDS011;15375;48.540;9.268;2024-02-16T06:00:16;5.63;;;3.77;;
1344;SDS011;15375;48.540;9.268;2024-02-16T06:02:46;7.30;;;4.03;;
1344;SDS011;15375;48.540;9.268;2024-02-16T06:05:11;5.57;;;4.20;;
1344;SDS011;15375;48.540;9.268;2024-02-16T06:07:37;5.93;;;4.47;;
1344;SDS011;15375;48.540;9.268;2024-02-16T06:10:05;4.73;;;4.27;;
1344;SDS011;15375;48.540;9.268;2024-02-16T06:12:38;4.77;;;4.17;;
1344;SDS011;15375;48.540;9.268;2024-02-16T06:15:04;4.47;;;4.07;;
1344;SDS011;15375;48.540;9.268;2024-02-16T06:17:30;4.90;;;4.40;;
1344;SDS011;15375;48.540;9.268;2024-02-16T06:19:56;5.63;;;4.30;;
1344;SDS011;15375;48.540;9.268;2024-02-16T06:22:21;7.53;;;4.80;;
1344;SDS011;15375;48.540;9.268;2024-02-16T06:24:47;7.77;;;4.47;;
1344;SDS011;15375;48.540;9.268;2024-02-16T06:27:12;13.53;;;3.73;;
1344;SDS011;15375;48.540;9.268;2024-02-16T06:29:38;5.07;;;3.63;;
1344;SDS011;15375;48.540;9.268;2024-02-16T06:32:03;4.93;;;3.70;;
1344;SDS011;15375;48.540;9.268;2024-02-16T06:34:30;6.17;;;3.57;;
1344;SDS011;15375;48.540;9.268;2024-02-16T06:36:56;13.57;;;11.27;;
1344;SDS011;15375;48.540;9.268;2024-02-16T06:39:22;6.10;;;4.53;;
1344;SDS011;15375;48.540;9.268;2024-02-16T06:41:48;8.80;;;4.20;;
1344;SDS011;15375;48.540;9.268;2024-02-16T06:44:14;7.23;;;4.67;;
1344;SDS011;15375;48.540;9.268;2024-02-16T06:46:40;5.23;;;4.23;;
1344;SDS011;15375;48.540;9.268;2024-02-16T06:49:06;10.73;;;4.30;;
1344;SDS011;15375;48.540;9.268;2024-02-16T06:51:31;8.67;;;4.50;;
1344;SDS011;15375;48.540;9.268;2024-02-16T06:53:57;7.73;;;4.30;;
1344;SDS011;15375;48.540;9.268;2024-02-16T06:56:22;4.90;;;3.80;;
1344;SDS011;15375;48.540;9.268;2024-02-16T06:58:49;4.80;;;3.73;;
1344;SDS011;15375;48.540;9.268;2024-02-16T07:01:14;7.00;;;4.60;;
1344;SDS011;15375;48.540;9.268;2024-02-16T07:03:40;5.90;;;4.73;;
1344;SDS011;15375;48.540;9.268;2024-02-16T07:06:07;6.57;;;4.73;;
1344;SDS011;15375;48.540;9.268;2024-02-16T07:08:35;9.63;;;4.63;;
1344;SDS011;15375;48.540;9.268;2024-02-16T07:11:02;6.20;;;4.13;;
1344;SDS011;15375;48.540;9.268;2024-02-16T07:13:28;5.30;;;3.83;;
1344;SDS011;15375;48.540;9.268;2024-02-16T07:15:54;5.03;;;3.70;;
1344;SDS011;15375;48.540;9.268;2024-02-16T07:18:19;4.30;;;3.20;;
1344;SDS011;15375;48.540;9.268;2024-02-16T07:20:45;4.70;;;3.60;;
1344;SDS011;15375;48.540;9.268;2024-02-16T07:23:10;9.33;;;3.90;;
1344;SDS011;15375;48.540;9.268;2024-02-16T07:25:35;9.60;;;3.20;;
1344;SDS011;15375;48.540;9.268;2024-02-16T07:28:01;4.57;;;2.53;;
1344;SDS011;15375;48.540;9.268;2024-02-16T07:30:26;4.47;;;3.20;;
1344;SDS011;15375;48.540;9.268;2024-02-16T07:32:52;7.70;;;3.60;;
1344;SDS011;15375;48.540;9.268;2024-02-16T07:35:17;4.53;;;3.37;;
1344;SDS011;15375;48.540;9.268;2024-02-16T07:37:43;4.17;;;3.33;;
1344;SDS011;15375;48.540;9.268;2024-02-16T07:40:09;5.53;;;3.00;;
1344;SDS011;15375;48.540;9.268;2024-02-16T07:42:40;6.20;;;3.60;;
1344;SDS011;15375;48.540;9.268;2024-02-16T07:45:07;4.73;;;3.23;;
1344;SDS011;15375;48.540;9.268;2024-02-16T07:47:34;4.10;;;3.70;;
1344;SDS011;15375;48.540;9.268;2024-02-16T07:50:00;5.23;;;3.13;;
1344;SDS011;15375;48.540;9.268;2024-02-16T07:52:26;4.90;;;3.17;;
1344;SDS011;15375;48.540;9.268;2024-02-16T07:54:51;3.63;;;3.27;;
1344;SDS011;15375;48.540;9.268;2024-02-16T07:57:17;7.53;;;3.07;;
1344;SDS011;15375;48.540;9.268;2024-02-16T07:59:42;4.20;;;3.33;;
1344;SDS011;15375;48.540;9.268;2024-02-16T08:02:08;5.53;;;4.00;;
1344;SDS011;15375;48.540;9.268;2024-02-16T08:04:34;8.87;;;3.93;;
1344;SDS011;15375;48.540;9.268;2024-02-16T08:07:00;4.50;;;3.43;;
1344;SDS011;15375;48.540;9.268;2024-02-16T08:09:26;7.60;;;4.20;;
1344;SDS011;15375;48.540;9.268;2024-02-16T08:11:52;4.63;;;3.80;;
1344;SDS011;15375;48.540;9.268;2024-02-16T08:14:17;9.23;;;4.57;;
1344;SDS011;15375;48.540;9.268;2024-02-16T08:16:42;6.77;;;5.00;;
1344;SDS011;15375;48.540;9.268;2024-02-16T08:19:08;5.00;;;3.80;;
1344;SDS011;15375;48.540;9.268;2024-02-16T08:21:33;6.07;;;3.87;;
1344;SDS011;15375;48.540;9.268;2024-02-16T08:23:58;5.90;;;4.07;;
1344;SDS011;15375;48.540;9.268;2024-02-16T08:26:24;4.87;;;4.37;;
1344;SDS011;15375;48.540;9.268;2024-02-16T08:28:50;5.37;;;4.20;;
1344;SDS011;15375;48.540;9.268;2024-02-16T08:31:18;6.73;;;4.90;;
1344;SDS011;15375;48.540;9.268;2024-02-16T08:33:44;5.40;;;4.20;;
1344;SDS011;15375;48.540;9.268;2024-02-16T08:36:10;6.40;;;4.70;;
1344;SDS011;15375;48.540;9.268;2024-02-16T08:38:38;4.73;;;4.33;;
1344;SDS011;15375;48.540;9.268;2024-02-16T08:41:04;7.00;;;4.50;;
1344;SDS011;15375;48.540;9.268;2024-02-16T08:43:29;7.60;;;4.90;;
1344;SDS011;15375;48.540;9.268;2024-02-16T08:45:54;5.07;;;4.00;;
1344;SDS011;15375;48.540;9.268;2024-02-16T08:48:21;4.27;;;3.87;;
1344;SDS011;15375;48.540;9.268;2024-02-16T08:50:46;3.83;;;2.97;;
1344;SDS011;15375;48.540;9.268;2024-02-16T08:53:12;4.43;;;4.00;;
1344;SDS011;15375;48.540;9.268;2024-02-16T08:55:39;4.83;;;4.27;;
1344;SDS011;15375;48.540;9.268;2024-02-16T08:58:06;5.80;;;4.07;;
1344;SDS011;15375;48.540;9.268;2024-02-16T09:00:32;6.30;;;3.60;;
1344;SDS011;15375;48.540;9.268;2024-02-16T09:02:57;5.70;;;3.90;;
1344;SDS011;15375;48.540;9.268;2024-02-16T09:05:23;6.30;;;4.10;;
1344;SDS011;15375;48.540;9.268;2024-02-16T09:07:49;5.67;;;3.77;;
1344;SDS011;15375;48.540;9.268;2024-02-16T09:10:14;4.23;;;3.33;;
1344;SDS011;15375;48.540;9.268;2024-02-16T09:12:39;6.87;;;4.00;;
1344;SDS011;15375;48.540;9.268;2024-02-16T09:15:05;6.77;;;4.47;;
1344;SDS011;15375;48.540;9.268;2024-02-16T09:17:31;3.93;;;3.33;;
1344;SDS011;15375;48.540;9.268;2024-02-16T09:19:57;12.23;;;4.37;;
1344;SDS011;15375;48.540;9.268;2024-02-16T09:22:22;6.33;;;3.47;;
1344;SDS011;15375;48.540;9.268;2024-02-16T09:24:48;6.40;;;3.93;;
1344;SDS011;15375;48.540;9.268;2024-02-16T09:27:13;4.47;;;4.07;;
1344;SDS011;15375;48.540;9.268;2024-02-16T09:29:39;5.97;;;3.43;;
1344;SDS011;15375;48.540;9.268;2024-02-16T09:32:05;7.50;;;4.10;;
1344;SDS011;15375;48.540;9.268;2024-02-16T09:34:31;3.70;;;3.40;;
1344;SDS011;15375;48.540;9.268;2024-02-16T09:36:56;6.13;;;3.63;;
1344;SDS011;15375;48.540;9.268;2024-02-16T09:39:22;5.70;;;3.90;;
1344;SDS011;15375;48.540;9.268;2024-02-16T09:41:49;5.03;;;3.23;;
1344;SDS011;15375;48.540;9.268;2024-02-16T09:44:17;4.60;;;3.90;;
1344;SDS011;15375;48.540;9.268;2024-02-16T09:46:43;10.37;;;3.40;;
1344;SDS011;15375;48.540;9.268;2024-02-16T09:49:08;5.00;;;3.27;;
1344;SDS011;15375;48.540;9.268;2024-02-16T09:51:36;9.53;;;3.33;;
1344;SDS011;15375;48.540;9.268;2024-02-16T09:54:03;5.20;;;3.37;;
1344;SDS011;15375;48.540;9.268;2024-02-16T09:56:28;5.23;;;2.50;;
1344;SDS011;15375;48.540;9.268;2024-02-16T09:58:54;4.17;;;2.93;;
1344;SDS011;15375;48.540;9.268;2024-02-16T10:01:22;2.63;;;2.40;;
1344;SDS011;15375;48.540;9.268;2024-02-16T10:03:49;3.10;;;2.30;;
1344;SDS011;15375;48.540;9.268;2024-02-16T10:06:15;3.30;;;3.00;;
1344;SDS011;15375;48.540;9.268;2024-02-16T10:08:50;8.67;;;3.03;;
1344;SDS011;15375;48.540;9.268;2024-02-16T10:11:17;6.87;;;2.93;;
1344;SDS011;15375;48.540;9.268;2024-02-16T10:16:38;3.67;;;3.10;;
1344;SDS011;15375;48.540;9.268;2024-02-16T10:19:04;4.40;;;3.17;;
1344;SDS011;15375;48.540;9.268;2024-02-16T10:21:31;5.83;;;3.20;;
1344;SDS011;15375;48.540;9.268;2024-02-16T10:23:59;2.20;;;2.00;;
1344;SDS011;15375;48.540;9.268;2024-02-16T10:26:33;3.90;;;2.37;;
1344;SDS011;15375;48.540;9.268;2024-02-16T10:29:02;2.33;;;2.13;;
1344;SDS011;15375;48.540;9.268;2024-02-16T10:31:29;2.30;;;2.00;;
1344;SDS011;15375;48.540;9.268;2024-02-16T10:33:56;3.97;;;2.80;;
1344;SDS011;15375;48.540;9.268;2024-02-16T10:36:23;2.90;;;2.33;;
1344;SDS011;15375;48.540;9.268;2024-02-16T10:38:50;4.07;;;2.20;;
1344;SDS011;15375;48.540;9.268;2024-02-16T10:41:18;4.73;;;2.40;;
1344;SDS011;15375;48.540;9.268;2024-02-16T10:43:46;2.73;;;2.47;;
1344;SDS011;15375;48.540;9.268;2024-02-16T10:46:14;2.30;;;2.10;;
1344;SDS011;15375;48.540;9.268;2024-02-16T10:48:41;2.17;;;1.90;;
1344;SDS011;15375;48.540;9.268;2024-02-16T10:51:07;3.20;;;2.40;;
1344;SDS011;15375;48.540;9.268;2024-02-16T10:53:34;2.37;;;2.00;;
1344;SDS011;15375;48.540;9.268;2024-02-16T10:56:01;2.80;;;1.90;;
1344;SDS011;15375;48.540;9.268;2024-02-16T10:58:27;3.70;;;2.20;;
1344;SDS011;15375;48.540;9.268;2024-02-16T11:00:54;3.63;;;2.23;;
1344;SDS011;15375;48.540;9.268;2024-02-16T11:03:22;2.77;;;2.03;;
1344;SDS011;15375;48.540;9.268;2024-02-16T11:05:49;3.33;;;1.90;;
1344;SDS011;15375;48.540;9.268;2024-02-16T11:08:15;3.43;;;1.90;;
1344;SDS011;15375;48.540;9.268;2024-02-16T11:11:00;2.50;;;1.90;;
1344;SDS011;15375;48.540;9.268;2024-02-16T11:13:32;2.60;;;2.30;;
1344;SDS011;15375;48.540;9.268;2024-02-16T11:15:58;3.40;;;2.20;;
1344;SDS011;15375;48.540;9.268;2024-02-16T11:18:25;2.60;;;2.20;;
1344;SDS011;15375;48.540;9.268;2024-02-16T11:20:54;2.13;;;1.93;;
1344;SDS011;15375;48.540;9.268;2024-02-16T11:23:25;3.87;;;2.73;;
1344;SDS011;15375;48.540;9.268;2024-02-16T11:25:54;2.23;;;2.00;;
1344;SDS011;15375;48.540;9.268;2024-02-16T11:28:19;5.03;;;2.10;;
1344;SDS011;15375;48.540;9.268;2024-02-16T11:30:45;3.97;;;2.50;;
1344;SDS011;15375;48.540;9.268;2024-02-16T11:33:10;2.50;;;2.30;;
1344;SDS011;15375;48.540;9.268;2024-02-16T11:35:36;4.90;;;2.00;;
1344;SDS011;15375;48.540;9.268;2024-02-16T11:38:01;2.90;;;2.60;;
1344;SDS011;15375;48.540;9.268;2024-02-16T11:40:27;2.57;;;2.37;;
1344;SDS011;15375;48.540;9.268;2024-02-16T11:43:02;2.70;;;2.27;;
1344;SDS011;15375;48.540;9.268;2024-02-16T11:45:27;3.33;;;2.07;;
1344;SDS011;15375;48.540;9.268;2024-02-16T11:48:08;2.70;;;2.37;;
1344;SDS011;15375;48.540;9.268;2024-02-16T11:50:34;4.23;;;2.17;;
1344;SDS011;15375;48.540;9.268;2024-02-16T11:53:00;4.90;;;2.33;;
1344;SDS011;15375;48.540;9.268;2024-02-16T11:55:25;6.30;;;2.80;;
1344;SDS011;15375;48.540;9.268;2024-02-16T11:57:51;2.70;;;2.00;;
1344;SDS011;15375;48.540;9.268;2024-02-16T12:00:16;2.23;;;2.00;;
1344;SDS011;15375;48.540;9.268;2024-02-16T12:02:42;3.93;;;2.27;;
1344;SDS011;15375;48.540;9.268;2024-02-16T12:05:07;2.77;;;2.07;;
1344;SDS011;15375;48.540;9.268;2024-02-16T12:07:33;2.37;;;2.17;;
1344;SDS011;15375;48.540;9.268;2024-02-16T12:10:03;3.63;;;2.00;;
1344;SDS011;15375;48.540;9.268;2024-02-16T12:12:31;2.40;;;1.90;;
1344;SDS011;15375;48.540;9.268;2024-02-16T12:14:56;2.23;;;2.00;;
1344;SDS011;15375;48.540;9.268;2024-02-16T12:17:23;2.83;;;2.17;;
1344;SDS011;15375;48.540;9.268;2024-02-16T12:19:49;3.07;;;1.83;;
1344;SDS011;15375;48.540;9.268;2024-02-16T12:22:19;5.10;;;2.87;;
1344;SDS011;15375;48.540;9.268;2024-02-16T12:24:46;7.13;;;2.87;;
1344;SDS011;15375;48.540;9.268;2024-02-16T12:27:13;3.13;;;2.40;;
1344;SDS011;15375;48.540;9.268;2024-02-16T12:29:39;2.50;;;2.30;;
1344;SDS011;15375;48.540;9.268;2024-02-16T12:32:05;8.43;;;2.63;;
1344;SDS011;15375;48.540;9.268;2024-02-16T12:34:31;2.87;;;2.27;;
1344;SDS011;15375;48.540;9.268;2024-02-16T12:36:56;3.30;;;3.00;;
1344;SDS011;15375;48.540;9.268;2024-02-16T12:39:22;2.63;;;2.20;;
1344;SDS011;15375;48.540;9.268;2024-02-16T12:41:47;4.73;;;2.40;;
1344;SDS011;15375;48.540;9.268;2024-02-16T12:44:14;3.57;;;2.10;;
1344;SDS011;15375;48.540;9.268;2024-02-16T12:46:39;4.37;;;2.37;;
1344;SDS011;15375;48.540;9.268;2024-02-16T12:49:05;3.67;;;2.30;;
1344;SDS011;15375;48.540;9.268;2024-02-16T12:51:31;4.77;;;2.83;;
1344;SDS011;15375;48.540;9.268;2024-02-16T12:53:57;6.73;;;2.77;;
1344;SDS011;15375;48.540;9.268;2024-02-16T12:56:22;2.90;;;1.90;;
1344;SDS011;15375;48.540;9.268;2024-02-16T12:58:48;3.60;;;2.20;;
1344;SDS011;15375;48.540;9.268;2024-02-16T13:01:13;4.60;;;2.70;;
1344;SDS011;15375;48.540;9.268;2024-02-16T13:03:39;5.00;;;2.40;;
1344;SDS011;15375;48.540;9.268;2024-02-16T13:06:04;2.53;;;2.33;;
1344;SDS011;15375;48.540;9.268;2024-02-16T13:08:30;3.00;;;2.67;;
1344;SDS011;15375;48.540;9.268;2024-02-16T13:10:56;2.17;;;2.00;;
1344;SDS011;15375;48.540;9.268;2024-02-16T13:13:22;3.17;;;2.50;;
1344;SDS011;15375;48.540;9.268;2024-02-16T13:15:48;6.60;;;2.40;;
1344;SDS011;15375;48.540;9.268;2024-02-16T13:18:14;5.10;;;2.43;;
1344;SDS011;15375;48.540;9.268;2024-02-16T13:20:40;5.67;;;2.80;;
1344;SDS011;15375;48.540;9.268;2024-02-16T13:23:06;2.57;;;2.37;;
1344;SDS011;15375;48.540;9.268;2024-02-16T13:25:32;3.03;;;2.53;;
1344;SDS011;15375;48.540;9.268;2024-02-16T13:27:57;4.53;;;2.50;;
1344;SDS011;15375;48.540;9.268;2024-02-16T13:30:22;4.40;;;2.53;;
1344;SDS011;15375;48.540;9.268;2024-02-16T13:32:48;3.10;;;2.70;;
1344;SDS011;15375;48.540;9.268;2024-02-16T13:35:13;9.43;;;2.83;;
1344;SDS011;15375;48.540;9.268;2024-02-16T13:37:39;7.23;;;2.50;;
1344;SDS011;15375;48.540;9.268;2024-02-16T13:40:06;3.80;;;2.53;;
1344;SDS011;15375;48.540;9.268;2024-02-16T13:42:36;3.00;;;2.30;;
1344;SDS011;15375;48.540;9.268;2024-02-16T13:45:03;3.93;;;2.63;;
1344;SDS011;15375;48.540;9.268;2024-02-16T13:47:28;3.10;;;2.37;;
1344;SDS011;15375;48.540;9.268;2024-02-16T13:49:54;3.00;;;1.90;;
1344;SDS011;15375;48.540;9.268;2024-02-16T13:52:21;4.73;;;2.90;;
1344;SDS011;15375;48.540;9.268;2024-02-16T13:54:47;5.93;;;3.10;;
1344;SDS011;15375;48.540;9.268;2024-02-16T13:57:13;2.73;;;2.23;;
1344;SDS011;15375;48.540;9.268;2024-02-16T13:59:38;2.73;;;2.53;;
1344;SDS011;15375;48.540;9.268;2024-02-16T14:02:04;4.90;;;2.67;;
1344;SDS011;15375;48.540;9.268;2024-02-16T14:04:29;7.77;;;3.07;;
1344;SDS011;15375;48.540;9.268;2024-02-16T14:06:54;4.30;;;3.13;;
1344;SDS011;15375;48.540;9.268;2024-02-16T14:09:20;7.03;;;3.23;;
1344;SDS011;15375;48.540;9.268;2024-02-16T14:11:45;4.10;;;2.57;;
1344;SDS011;15375;48.540;9.268;2024-02-16T14:14:11;4.30;;;2.60;;
1344;SDS011;15375;48.540;9.268;2024-02-16T14:16:36;3.03;;;2.43;;
1344;SDS011;15375;48.540;9.268;2024-02-16T14:19:02;7.50;;;2.23;;
1344;SDS011;15375;48.540;9.268;2024-02-16T14:21:28;2.87;;;2.53;;
1344;SDS011;15375;48.540;9.268;2024-02-16T14:23:53;4.63;;;3.27;;
1344;SDS011;15375;48.540;9.268;2024-02-16T14:26:19;11.93;;;2.67;;
1344;SDS011;15375;48.540;9.268;2024-02-16T14:28:45;2.83;;;2.50;;
1344;SDS011;15375;48.540;9.268;2024-02-16T14:31:10;5.00;;;3.63;;
1344;SDS011;15375;48.540;9.268;2024-02-16T14:33:38;5.70;;;2.53;;
1344;SDS011;15375;48.540;9.268;2024-02-16T14:36:03;3.90;;;2.13;;
1344;SDS011;15375;48.540;9.268;2024-02-16T14:38:29;6.07;;;2.63;;
1344;SDS011;15375;48.540;9.268;2024-02-16T14:40:55;3.97;;;2.60;;
1344;SDS011;15375;48.540;9.268;2024-02-16T14:43:20;6.20;;;2.30;;
1344;SDS011;15375;48.540;9.268;2024-02-16T14:45:46;7.00;;;2.70;;
1344;SDS011;15375;48.540;9.268;2024-02-16T14:48:11;4.47;;;2.57;;
1344;SDS011;15375;48.540;9.268;2024-02-16T14:50:37;7.50;;;3.13;;
1344;SDS011;15375;48.540;9.268;2024-02-16T14:53:02;5.23;;;2.60;;
1344;SDS011;15375;48.540;9.268;2024-02-16T14:55:28;8.23;;;2.50;;